createdAt,value
2018-09-14T00:00:54.652Z,82.83
2018-09-14T00:03:25.075Z,77.07
2018-09-14T00:05:54.563Z,70.27
2018-09-14T00:08:27.193Z,68.00
2018-09-14T00:11:00.352Z,64.97
2018-09-14T00:13:30.556Z,65.70
2018-09-14T00:16:11.761Z,67.10
2018-09-14T00:18:53.665Z,58.40
2018-09-14T00:21:23.801Z,52.40
2018-09-14T00:23:54.713Z,53.80
2018-09-14T00:26:24.083Z,56.20
2018-09-14T00:28:53.793Z,73.53
2018-09-14T00:31:24.758Z,63.67
2018-09-14T00:33:53.959Z,53.93
2018-09-14T00:36:23.214Z,59.30
2018-09-14T00:38:52.198Z,74.80
2018-09-14T00:41:22.446Z,69.63
2018-09-14T00:43:56.272Z,69.40
2018-09-14T00:46:26.051Z,68.60
2018-09-14T00:48:56.387Z,74.27
2018-09-14T00:51:25.556Z,64.80
2018-09-14T00:54:01.181Z,73.07
2018-09-14T00:56:30.909Z,74.87
2018-09-14T00:59:01.414Z,82.63
2018-09-14T01:01:32.536Z,67.40
2018-09-14T01:04:01.791Z,76.30
2018-09-14T01:06:40.568Z,76.00
2018-09-14T01:09:15.580Z,70.13
2018-09-14T01:11:45.575Z,88.93
2018-09-14T01:14:16.846Z,73.33
2018-09-14T01:16:46.796Z,73.27
2018-09-14T01:19:31.139Z,62.13
2018-09-14T01:22:08.953Z,73.50
2018-09-14T01:24:38.456Z,64.93
2018-09-14T01:27:07.700Z,73.73
2018-09-14T01:29:36.902Z,70.97
2018-09-14T01:32:06.919Z,78.90
2018-09-14T01:34:36.116Z,75.63
2018-09-14T01:37:12.717Z,70.23
2018-09-14T01:39:44.717Z,69.20
2018-09-14T01:42:14.059Z,77.80
2018-09-14T01:44:44.758Z,73.07
2018-09-14T01:47:13.707Z,65.73
2018-09-14T01:49:45.809Z,78.07
2018-09-14T01:52:14.831Z,69.17
2018-09-14T01:54:44.223Z,79.07
2018-09-14T01:57:13.412Z,70.63
2018-09-14T01:59:44.881Z,75.43
2018-09-14T02:02:13.922Z,78.07
2018-09-14T02:04:43.030Z,74.07
2018-09-14T02:07:12.497Z,68.87
2018-09-14T02:09:41.833Z,74.13
2018-09-14T02:12:11.045Z,70.87
2018-09-14T02:14:40.049Z,78.27
2018-09-14T02:17:10.545Z,63.90
2018-09-14T02:19:39.977Z,70.27
2018-09-14T02:22:10.220Z,76.70
2018-09-14T02:24:41.631Z,80.03
2018-09-14T02:27:10.644Z,67.50
2018-09-14T02:29:39.965Z,78.43
2018-09-14T02:32:10.611Z,80.70
2018-09-14T02:34:40.184Z,76.03
2018-09-14T02:37:09.298Z,87.83
2018-09-14T02:39:39.179Z,81.27
2018-09-14T02:42:08.326Z,82.47
2018-09-14T02:44:43.194Z,75.33
2018-09-14T02:47:14.439Z,65.27
2018-09-14T02:49:44.665Z,69.20
2018-09-14T02:52:13.854Z,83.27
2018-09-14T02:54:45.004Z,86.23
2018-09-14T02:57:16.685Z,84.07
2018-09-14T02:59:47.368Z,76.03
2018-09-14T03:02:18.198Z,80.43
2018-09-14T03:04:49.043Z,73.47
2018-09-14T03:07:19.987Z,92.33
2018-09-14T03:09:49.854Z,77.83
2018-09-14T03:12:19.916Z,74.10
2018-09-14T03:14:50.450Z,80.23
2018-09-14T03:17:20.341Z,73.33
2018-09-14T03:19:50.637Z,68.00
2018-09-14T03:22:21.684Z,73.03
2018-09-14T03:24:52.562Z,68.87
2018-09-14T03:27:21.621Z,74.27
2018-09-14T03:29:52.460Z,70.40
2018-09-14T03:32:23.273Z,80.03
2018-09-14T03:35:09.969Z,77.00
2018-09-14T03:37:53.012Z,68.83
2018-09-14T03:40:31.386Z,65.13
2018-09-14T03:43:00.500Z,81.67
2018-09-14T03:45:30.039Z,65.83
2018-09-14T03:47:59.239Z,70.47
2018-09-14T03:50:29.361Z,73.00
2018-09-14T03:52:58.989Z,72.47
2018-09-14T03:55:29.126Z,75.83
2018-09-14T03:57:58.759Z,71.80
2018-09-14T04:00:28.568Z,71.77
2018-09-14T04:02:58.272Z,65.83
2018-09-14T04:05:29.000Z,77.20
2018-09-14T04:07:58.076Z,79.77
2018-09-14T04:10:28.542Z,84.73
2018-09-14T04:13:07.005Z,79.27
2018-09-14T04:15:44.791Z,94.07
2018-09-14T04:18:24.656Z,116.47
2018-09-14T04:20:55.450Z,71.53
2018-09-14T04:23:24.551Z,78.90
2018-09-14T04:25:53.581Z,78.60
2018-09-14T04:28:25.200Z,79.30
2018-09-14T04:30:54.376Z,74.53
2018-09-14T04:33:23.644Z,79.27
2018-09-14T04:35:52.627Z,70.47
2018-09-14T04:38:21.752Z,88.10
2018-09-14T04:40:53.608Z,65.40
2018-09-14T04:43:23.145Z,71.40
2018-09-14T04:45:52.279Z,78.83
2018-09-14T04:48:25.387Z,81.23
2018-09-14T04:51:09.811Z,72.50
2018-09-14T04:53:49.184Z,72.03
2018-09-14T04:56:20.086Z,70.83
2018-09-14T04:58:51.337Z,69.23
2018-09-14T05:01:21.306Z,74.37
2018-09-14T05:03:52.738Z,71.17
2018-09-14T05:06:21.836Z,85.77
2018-09-14T05:08:52.502Z,88.83
2018-09-14T05:11:21.602Z,89.00
2018-09-14T05:13:55.251Z,101.10
2018-09-14T05:16:34.454Z,76.43
2018-09-14T05:19:03.570Z,87.60
2018-09-14T05:21:32.734Z,76.17
2018-09-14T05:24:01.768Z,82.07
2018-09-14T05:26:31.024Z,77.43
2018-09-14T05:29:00.270Z,93.10
2018-09-14T05:31:29.386Z,86.63
2018-09-14T05:34:01.891Z,70.43
2018-09-14T05:36:32.420Z,74.53
2018-09-14T05:39:02.177Z,85.93
2018-09-14T05:41:31.127Z,81.17
2018-09-14T05:44:00.419Z,70.47
2018-09-14T05:46:30.242Z,79.37
2018-09-14T05:49:00.238Z,80.23
2018-09-14T05:51:31.465Z,101.00
2018-09-14T05:54:01.664Z,85.43
2018-09-14T05:56:30.706Z,84.50
2018-09-14T05:59:02.163Z,87.10
2018-09-14T06:01:31.251Z,74.13
2018-09-14T06:04:04.180Z,69.17
2018-09-14T06:06:34.382Z,70.93
2018-09-14T06:09:04.878Z,86.90
2018-09-14T06:11:37.360Z,63.00
2018-09-14T06:14:07.196Z,66.80
2018-09-14T06:16:36.884Z,67.07
2018-09-14T06:19:07.926Z,64.83
2018-09-14T06:21:44.628Z,64.70
2018-09-14T06:24:21.402Z,64.80
2018-09-14T06:26:52.030Z,76.17
2018-09-14T06:29:21.401Z,67.67
2018-09-14T06:31:55.999Z,79.30
2018-09-14T06:34:25.379Z,68.50
2018-09-14T06:36:54.361Z,57.20
2018-09-14T06:39:25.830Z,72.03
2018-09-14T06:41:54.878Z,55.70
2018-09-14T06:44:25.419Z,64.83
2018-09-14T06:46:54.843Z,54.57
2018-09-14T06:49:24.755Z,58.80
2018-09-14T06:51:53.873Z,50.57
2018-09-14T06:54:23.327Z,59.67
2018-09-14T06:56:53.673Z,59.10
2018-09-14T06:59:25.295Z,66.87
2018-09-14T07:01:54.759Z,61.73
2018-09-14T07:04:24.194Z,59.53
2018-09-14T07:06:54.274Z,67.30
2018-09-14T07:09:27.662Z,57.67
2018-09-14T07:11:57.835Z,60.97
2018-09-14T07:14:27.987Z,62.60
2018-09-14T07:16:58.874Z,62.53
2018-09-14T07:19:28.182Z,71.93
2018-09-14T07:22:02.848Z,70.87
2018-09-14T07:24:34.557Z,67.50
2018-09-14T07:27:05.135Z,58.80
2018-09-14T07:29:35.611Z,62.40
2018-09-14T07:32:05.760Z,60.67
2018-09-14T07:34:35.409Z,48.87
2018-09-14T07:37:05.201Z,54.03
2018-09-14T07:39:36.018Z,62.43
2018-09-14T07:42:05.440Z,76.07
2018-09-14T07:44:34.593Z,65.13
2018-09-14T07:47:09.524Z,61.50
2018-09-14T07:49:39.202Z,60.73
2018-09-14T07:52:08.418Z,60.00
2018-09-14T07:54:40.355Z,48.53
2018-09-14T07:57:11.760Z,54.50
2018-09-14T07:59:42.275Z,62.20
2018-09-14T08:02:14.760Z,61.73
2018-09-14T08:04:45.721Z,58.73
2018-09-14T08:07:18.190Z,48.03
2018-09-14T08:09:47.728Z,61.47
2018-09-14T08:12:18.736Z,61.20
2018-09-14T08:14:48.408Z,48.17
2018-09-14T08:17:21.878Z,47.70
2018-09-14T08:19:52.356Z,53.00
2018-09-14T08:22:22.027Z,52.67
2018-09-14T08:24:51.609Z,58.73
2018-09-14T08:27:21.438Z,63.93
2018-09-14T08:30:06.197Z,55.43
2018-09-14T08:32:46.356Z,64.53
2018-09-14T08:35:16.441Z,56.23
2018-09-14T08:37:46.392Z,75.43
2018-09-14T08:40:26.725Z,58.40
2018-09-14T08:43:03.933Z,59.77
2018-09-14T08:45:33.868Z,56.70
2018-09-14T08:48:04.827Z,58.00
2018-09-14T08:50:35.701Z,55.87
2018-09-14T08:53:05.982Z,53.97
2018-09-14T08:55:37.705Z,67.50
2018-09-14T08:58:09.768Z,75.93
2018-09-14T09:00:46.856Z,65.03
2018-09-14T09:03:20.807Z,64.43
2018-09-14T09:05:51.429Z,64.23
2018-09-14T09:08:20.682Z,62.33
2018-09-14T09:10:49.992Z,63.37
2018-09-14T09:13:22.252Z,65.17
2018-09-14T09:15:51.595Z,55.67
2018-09-14T09:18:21.929Z,61.40
2018-09-14T09:20:51.168Z,61.33
2018-09-14T09:23:21.547Z,57.40
2018-09-14T09:25:50.808Z,59.93
2018-09-14T09:28:20.467Z,49.37
2018-09-14T09:30:50.660Z,53.50
2018-09-14T09:33:20.992Z,46.23
2018-09-14T09:35:50.619Z,52.00
2018-09-14T09:38:19.816Z,61.20
2018-09-14T09:40:49.207Z,63.83
2018-09-14T09:43:19.606Z,73.13
2018-09-14T09:45:50.809Z,59.07
2018-09-14T09:48:21.304Z,54.00
2018-09-14T09:50:54.230Z,51.00
2018-09-14T09:53:24.358Z,54.43
2018-09-14T09:55:53.970Z,52.03
2018-09-14T09:58:23.278Z,56.53
2018-09-14T10:00:57.562Z,69.30
2018-09-14T10:03:38.162Z,54.10
2018-09-14T10:06:13.613Z,64.20
2018-09-14T10:08:42.871Z,54.20
2018-09-14T10:11:12.661Z,57.63
2018-09-14T10:17:05.376Z,59.40
2018-09-14T10:19:37.462Z,50.20
2018-09-14T10:22:23.896Z,49.80
2018-09-14T10:24:53.940Z,46.57
2018-09-14T10:27:23.916Z,65.37
2018-09-14T10:31:00.234Z,58.40
2018-09-14T10:33:31.164Z,62.30
2018-09-14T10:36:04.281Z,49.70
2018-09-14T10:38:33.943Z,38.37
2018-09-14T10:41:04.517Z,48.83
2018-09-14T10:43:39.767Z,60.33
2018-09-14T10:46:10.019Z,38.30
2018-09-14T10:48:43.975Z,34.87
2018-09-14T10:51:15.277Z,39.97
2018-09-14T10:53:52.272Z,35.57
2018-09-14T10:56:31.736Z,37.60
2018-09-14T10:59:02.267Z,42.70
2018-09-14T11:01:33.284Z,42.27
2018-09-14T11:04:04.178Z,39.10
2018-09-14T11:06:36.825Z,36.43
2018-09-14T11:09:13.945Z,40.37
2018-09-14T11:11:57.341Z,41.03
2018-09-14T11:14:28.135Z,48.27
2018-09-14T11:16:58.448Z,37.13
2018-09-14T11:19:30.342Z,41.00
2018-09-14T11:22:00.937Z,41.27
2018-09-14T11:24:31.324Z,38.87
2018-09-14T11:27:14.728Z,44.30
2018-09-14T11:29:58.442Z,31.17
2018-09-14T11:32:30.242Z,32.00
2018-09-14T11:34:59.507Z,32.80
2018-09-14T11:37:35.617Z,39.77
2018-09-14T11:40:06.702Z,34.47
2018-09-14T11:42:38.548Z,37.83
2018-09-14T11:45:08.334Z,44.20
2018-09-14T11:47:38.612Z,32.00
2018-09-14T11:50:08.565Z,25.03
2018-09-14T11:52:37.782Z,27.80
2018-09-14T11:55:08.342Z,27.57
2018-09-14T11:57:38.935Z,20.67
2018-09-14T12:00:10.883Z,27.53
2018-09-14T12:02:41.564Z,19.97
2018-09-14T12:05:12.662Z,24.10
2018-09-14T12:07:42.939Z,23.13
2018-09-14T12:10:12.916Z,29.70
2018-09-14T12:12:47.328Z,25.60
2018-09-14T12:15:17.599Z,22.47
2018-09-14T12:17:48.661Z,28.83
2018-09-14T12:20:23.866Z,31.67
2018-09-14T12:22:56.415Z,28.80
2018-09-14T12:25:26.169Z,26.87
2018-09-14T12:28:11.876Z,20.07
2018-09-14T12:30:48.799Z,25.73
2018-09-14T12:33:21.529Z,19.07
2018-09-14T12:35:52.627Z,23.67
2018-09-14T12:38:22.074Z,17.00
2018-09-14T12:40:52.324Z,27.33
2018-09-14T12:46:06.654Z,15.60
2018-09-14T12:48:38.518Z,29.20
2018-09-14T12:51:12.176Z,27.70
2018-09-14T12:53:45.543Z,17.80
2018-09-14T12:56:26.009Z,30.07
2018-09-14T12:58:58.833Z,23.90
2018-09-14T13:01:50.149Z,26.83
2018-09-14T13:04:20.399Z,17.60
2018-09-14T13:06:51.494Z,26.87
2018-09-14T13:09:21.087Z,23.63
2018-09-14T13:11:51.538Z,30.93
2018-09-14T13:14:25.135Z,24.73
2018-09-14T13:16:54.955Z,26.97
2018-09-14T13:19:40.227Z,22.63
2018-09-14T13:22:13.426Z,17.60
2018-09-14T13:24:44.274Z,24.90
2018-09-14T13:27:15.393Z,33.83
2018-09-14T13:29:48.960Z,17.10
2018-09-14T13:32:20.289Z,30.93
2018-09-14T13:34:49.828Z,59.33
2018-09-14T13:37:36.946Z,143.10
2018-09-14T13:40:11.889Z,86.93
2018-09-14T13:42:47.688Z,37.00
2018-09-14T13:45:21.726Z,23.53
2018-09-14T13:48:02.716Z,19.97
2018-09-14T13:50:35.785Z,14.20
2018-09-14T13:53:21.865Z,27.93
2018-09-14T13:55:57.432Z,24.57
2018-09-14T14:01:44.211Z,18.27
2018-09-14T14:07:20.495Z,24.07
2018-09-14T14:09:55.981Z,17.53
2018-09-14T14:12:39.476Z,33.17
2018-09-14T14:15:21.764Z,20.50
2018-09-14T14:17:55.305Z,22.23
2018-09-14T14:20:26.014Z,15.87
2018-09-14T14:23:01.615Z,18.67
2018-09-14T14:26:00.153Z,24.67
2018-09-14T14:28:34.980Z,36.33
2018-09-14T14:31:09.325Z,19.53
2018-09-14T14:33:46.519Z,16.07
2018-09-14T14:36:23.739Z,18.23
2018-09-14T14:38:59.311Z,22.27
2018-09-14T14:41:30.060Z,21.60
2018-09-14T14:44:11.183Z,37.17
2018-09-14T14:49:48.228Z,39.23
2018-09-14T14:52:23.208Z,14.83
2018-09-14T14:54:56.301Z,16.77
2018-09-14T14:57:25.917Z,16.27
2018-09-14T14:59:55.450Z,19.03
2018-09-14T15:02:26.175Z,18.73
2018-09-14T15:04:59.107Z,14.30
2018-09-14T15:07:35.483Z,15.43
2018-09-14T15:10:08.554Z,29.53
2018-09-14T15:12:40.573Z,33.13
2018-09-14T15:15:11.195Z,23.47
2018-09-14T15:17:43.208Z,17.47
2018-09-14T15:20:16.364Z,21.17
2018-09-14T15:22:46.635Z,20.93
2018-09-14T15:25:21.487Z,24.27
2018-09-14T15:27:52.828Z,17.23
2018-09-14T15:30:22.629Z,15.00
2018-09-14T15:32:52.146Z,30.13
2018-09-14T15:35:21.746Z,16.03
2018-09-14T15:37:58.339Z,28.33
2018-09-14T15:40:52.712Z,14.17
2018-09-14T15:43:38.088Z,16.80
2018-09-14T15:46:16.571Z,21.67
2018-09-14T15:48:52.724Z,19.03
2018-09-14T15:51:42.852Z,30.13
2018-09-14T15:54:20.251Z,22.40
2018-09-14T16:02:31.664Z,17.60
2018-09-14T16:05:29.199Z,17.13
2018-09-14T16:08:04.599Z,21.43
2018-09-14T16:10:44.151Z,18.63
2018-09-14T16:13:47.922Z,25.03
2018-09-14T16:16:28.613Z,14.67
2018-09-14T16:19:03.049Z,24.57
2018-09-14T16:21:39.473Z,18.17
2018-09-14T16:27:16.028Z,17.70
2018-09-14T16:29:47.281Z,15.53
2018-09-14T16:32:37.284Z,44.97
2018-09-14T16:35:32.406Z,24.53
2018-09-14T16:38:09.736Z,15.73
2018-09-14T16:40:41.417Z,28.90
2018-09-14T16:43:12.759Z,32.80
2018-09-14T16:45:51.831Z,22.90
2018-09-14T16:48:22.240Z,18.27
2018-09-14T16:50:56.093Z,25.13
2018-09-14T16:53:26.750Z,21.70
2018-09-14T16:56:01.234Z,23.07
2018-09-14T16:58:43.874Z,24.13
2018-09-14T17:01:27.052Z,20.30
2018-09-14T17:03:57.282Z,43.90
2018-09-14T17:06:33.958Z,17.77
2018-09-14T17:09:16.542Z,18.37
2018-09-14T17:11:53.489Z,23.60
2018-09-14T17:14:34.361Z,91.53
2018-09-14T17:17:33.325Z,36.93
2018-09-14T17:20:06.196Z,34.57
2018-09-14T17:22:49.581Z,19.03
2018-09-14T17:25:21.412Z,83.23
2018-09-14T17:30:38.474Z,61.27
2018-09-14T17:33:56.668Z,25.20
2018-09-14T17:36:38.531Z,18.98
2018-09-14T17:39:22.689Z,25.00
2018-09-14T17:42:05.085Z,14.40
2018-09-14T17:44:36.041Z,29.13
2018-09-14T17:47:07.026Z,19.93
2018-09-14T17:49:54.562Z,24.23
2018-09-14T17:52:30.266Z,29.20
2018-09-14T17:55:04.088Z,48.10
2018-09-14T17:57:34.206Z,19.13
2018-09-14T18:00:07.067Z,20.33
2018-09-14T18:02:40.093Z,24.43
2018-09-14T18:05:15.807Z,25.43
2018-09-14T18:08:01.403Z,39.93
2018-09-14T18:13:22.328Z,24.23
2018-09-14T18:19:04.026Z,35.40
2018-09-14T18:21:52.416Z,30.37
2018-09-14T18:24:25.711Z,42.07
2018-09-14T18:27:26.079Z,37.67
2018-09-14T18:30:03.260Z,83.23
2018-09-14T18:32:39.237Z,23.80
2018-09-14T18:35:15.821Z,22.27
2018-09-14T18:38:29.384Z,27.23
2018-09-14T18:41:31.128Z,27.33
2018-09-14T18:44:40.497Z,41.27
2018-09-14T18:47:19.649Z,30.70
2018-09-14T18:49:57.717Z,18.70
2018-09-14T18:52:31.504Z,27.00
2018-09-14T18:55:08.360Z,16.43
2018-09-14T18:58:14.191Z,24.57
2018-09-14T19:00:55.405Z,24.23
2018-09-14T19:03:33.910Z,17.90
2018-09-14T19:06:08.722Z,25.00
2018-09-14T19:09:13.745Z,16.57
2018-09-14T19:11:55.705Z,34.40
2018-09-14T19:14:31.745Z,89.13
2018-09-14T19:17:24.190Z,48.10
2018-09-14T19:20:01.424Z,19.30
2018-09-14T19:22:53.613Z,34.10
2018-09-14T19:25:25.303Z,45.50
2018-09-14T19:28:04.972Z,32.60
2018-09-14T19:30:42.751Z,39.97
2018-09-14T19:33:30.914Z,36.20
2018-09-14T19:36:13.511Z,48.80
2018-09-14T19:39:29.165Z,31.53
2018-09-14T19:42:53.853Z,30.70
2018-09-14T19:45:29.944Z,32.53
2018-09-14T19:48:22.272Z,39.97
2018-09-14T19:54:13.595Z,33.90
2018-09-14T19:56:55.454Z,22.57
2018-09-14T20:08:15.555Z,22.60
2018-09-14T20:11:00.359Z,32.53
2018-09-14T20:13:49.314Z,27.50
2018-09-14T20:16:24.356Z,37.57
2018-09-14T20:19:00.651Z,29.23
2018-09-14T20:21:39.096Z,29.20
2018-09-14T20:24:26.415Z,30.37
2018-09-14T20:27:01.545Z,45.97
2018-09-14T20:29:36.694Z,48.50
2018-09-14T20:32:08.654Z,45.53
2018-09-14T20:34:49.226Z,41.17
2018-09-14T20:37:22.564Z,23.30
2018-09-14T20:40:00.134Z,31.53
2018-09-14T20:42:34.101Z,31.10
2018-09-14T20:45:22.575Z,33.47
2018-09-14T20:48:25.668Z,56.17
2018-09-14T20:51:23.684Z,102.70
2018-09-14T20:53:56.441Z,315.17
2018-09-14T20:56:28.286Z,37.00
2018-09-14T20:59:18.973Z,28.80
2018-09-14T21:01:56.278Z,24.97
2018-09-14T21:04:56.982Z,25.30
2018-09-14T21:07:31.695Z,18.23
2018-09-14T21:13:04.657Z,32.77
2018-09-14T21:19:23.021Z,41.37
2018-09-14T21:22:18.614Z,28.90
2018-09-14T21:25:18.525Z,53.50
2018-09-14T21:28:06.460Z,29.33
2018-09-14T21:33:17.308Z,32.77
2018-09-14T21:36:23.868Z,53.63
2018-09-14T21:39:01.343Z,41.73
2018-09-14T21:41:37.685Z,23.00
2018-09-14T21:50:16.255Z,38.07
2018-09-14T21:52:51.814Z,48.57
2018-09-14T21:55:36.817Z,29.77
2018-09-14T21:58:20.075Z,31.53
2018-09-14T22:00:59.133Z,40.53
2018-09-14T22:03:45.534Z,44.93
2018-09-14T22:06:29.743Z,65.27
2018-09-14T22:09:13.226Z,18.50
2018-09-14T22:11:43.273Z,25.10
2018-09-14T22:14:18.879Z,17.40
2018-09-14T22:17:20.876Z,40.77
2018-09-14T22:19:59.531Z,19.73
2018-09-14T22:25:56.136Z,25.30
2018-09-14T22:28:40.301Z,29.30
2018-09-14T22:31:56.502Z,20.80
2018-09-14T22:34:53.695Z,32.77
2018-09-14T22:37:27.240Z,29.90
2018-09-14T22:39:58.312Z,38.30
2018-09-14T22:42:36.107Z,29.37
2018-09-14T22:45:06.723Z,45.73
2018-09-14T22:47:36.917Z,43.03
2018-09-14T22:50:08.646Z,64.93
2018-09-14T22:52:40.027Z,21.77
2018-09-14T22:55:15.493Z,23.83
2018-09-14T22:57:46.954Z,51.60
2018-09-14T23:00:25.186Z,17.43
2018-09-14T23:03:01.913Z,30.33
2018-09-14T23:05:35.088Z,23.73
2018-09-14T23:08:09.747Z,33.40
2018-09-14T23:10:54.483Z,42.97
2018-09-14T23:13:42.608Z,49.47
2018-09-14T23:16:13.213Z,64.23
2018-09-14T23:18:52.813Z,84.87
2018-09-14T23:21:23.857Z,75.83
2018-09-14T23:24:01.793Z,33.80
2018-09-14T23:26:42.528Z,29.67
2018-09-14T23:29:24.583Z,49.27
2018-09-14T23:31:56.098Z,39.50
2018-09-14T23:34:26.026Z,47.63
2018-09-14T23:37:02.547Z,77.70
2018-09-14T23:42:17.087Z,59.33
2018-09-14T23:44:46.791Z,26.57
2018-09-14T23:47:21.169Z,53.13
2018-09-14T23:49:59.181Z,71.30
2018-09-14T23:52:29.407Z,74.83
2018-09-14T23:55:03.773Z,57.90
2018-09-14T23:57:34.603Z,89.03
